Flight Track Log - Related Links

Times and Time Zones

All times are in EDT time to prevent confusion due to time zone crossing. See the ASQ5941 flight status page for this flight to view local times or setup timezone preferences in your user account.

Time Position Orientation Groundspeed Altitude Reporting Facility
EDT Latitude Longitude Course Direction KTS MPH feet Rate Location/Type
Thu 05:17:51 PM 41.2694 -75.7919 222° Southwest 191 220 4,600  Level New York Center
Thu 05:18:51 PM 41.3158 -75.8314 327° Northwest 228 262 6,200 1,700 Climbing New York Center
Thu 05:19:00 PM 41.3773 -75.8547 304° West  Level FlightAware Approximate
Thu 05:19:51 PM 41.3833 -75.8558 345° North 233 268 8,000  Level New York Center
Thu 05:20:00 PM 41.4242 -75.9378 315° West  Level FlightAware Approximate
Thu 05:20:52 PM 41.4392 -75.9183 320° Northwest 244 281 8,700  Level New York Center
Thu 05:21:00 PM 41.4724 -76.0243 315° West  Level FlightAware Approximate
Thu 05:21:51 PM 41.4969 -75.9781 322° Northwest 255 293 11,000  Level New York Center
Thu 05:22:00 PM 41.5290 -76.1018 312° West  Level FlightAware Approximate
Thu 05:22:51 PM 41.5667 -76.0472 323° Northwest 282 325 12,400  Level New York Center
Thu 05:23:51 PM 41.6383 -76.1194 323° Northwest 304 350 13,400 1,140 Climbing New York Center
Thu 05:24:52 PM 41.6781 -76.2114 300° West 309 356 14,700 1,328 Climbing New York Center
Thu 05:25:53 PM 41.7125 -76.3228 293° West 326 375 16,100 6,327 Climbing New York Center
Thu 05:28:14 PM 41.7908 -76.5975 291° West 333 383 36,000 1,254 Climbing Cleveland Center
Thu 05:29:14 PM 41.8239 -76.7125 291° West 333 383 20,300 -7,250 Descending Cleveland Center
Thu 05:30:14 PM 41.8550 -76.8306 290° West 333 383 21,500 1,200 Climbing Cleveland Center
Thu 05:31:14 PM 41.8881 -76.9486 291° West 333 383 22,700 1,100 Climbing Cleveland Center
Thu 05:32:14 PM 41.9208 -77.0694 290° West 333 383 23,700 942 Climbing Cleveland Center
Thu 05:33:15 PM 41.9558 -77.1906 291° West 345 397 24,600 950 Climbing Cleveland Center
Thu 05:34:14 PM 41.9864 -77.3144 288° West 345 397 25,600 1,008 Climbing Cleveland Center
Thu 05:35:14 PM 42.0192 -77.4414 289° West 345 397 26,600 3,467 Climbing Cleveland Center
Thu 05:37:14 PM 42.0886 -77.6983 290° West 345 397 36,000 800 Climbing Cleveland Center
Thu 05:38:14 PM 42.1208 -77.8228 289° West 345 397 29,000 -3,150 Descending Cleveland Center
Thu 05:39:14 PM 42.1550 -77.9447 291° West 350 403 29,700 750 Climbing Cleveland Center
Thu 05:40:14 PM 42.1889 -78.0722 290° West 350 403 30,500 800 Climbing Cleveland Center
Thu 05:41:14 PM 42.2189 -78.2028 287° West 360 414 31,300 750 Climbing Cleveland Center
Thu 05:42:14 PM 42.2547 -78.3306 291° West 365 420 32,000 750 Climbing Cleveland Center
Thu 05:43:14 PM 42.2864 -78.4586 289° West 365 420 32,800 650 Climbing Cleveland Center
Thu 05:44:14 PM 42.3200 -78.5950 288° West 365 420 33,300 650 Climbing Cleveland Center
Thu 05:45:14 PM 42.3558 -78.7317 290° West 371 427 34,100 850 Climbing Cleveland Center
Thu 05:46:14 PM 42.3892 -78.8628 289° West 371 427 35,000 850 Climbing Cleveland Center
Thu 05:47:14 PM 42.4178 -78.9828 288° West 376 433 35,800 500 Climbing Cleveland Center
Thu 05:48:14 PM 42.4575 -79.1339 290° West 376 433 36,000 100 Climbing Cleveland Center
Thu 05:49:14 PM 42.4903 -79.2767 287° West 387 445 36,000  Level Cleveland Center
Thu 05:50:14 PM 42.5022 -79.4231 276° West 393 452 36,000  Level Cleveland Center
Thu 05:51:14 PM 42.5058 -79.5750 272° West 398 458 36,000  Level Cleveland Center
Thu 05:52:14 PM 42.5133 -79.7242 274° West 404 465 36,000  Level Cleveland Center
Thu 05:53:14 PM 42.5247 -79.8733 276° West 404 465 36,000  Level Cleveland Center
Thu 05:54:14 PM 42.5256 -80.0083 271° West 404 465 36,000  Level Cleveland Center
Thu 05:55:14 PM 42.5303 -80.1578 273° West 404 465 36,000  Level Cleveland Center
Thu 05:56:14 PM 42.5392 -80.3097 275° West 404 465 36,000  Level Cleveland Center
Thu 05:57:14 PM 42.5436 -80.4592 272° West 399 459 36,000  Level Cleveland Center
Thu 05:58:14 PM 42.5497 -80.6114 273° West 406 467 36,000  Level Cleveland Center
Thu 05:59:14 PM 42.5581 -80.7747 274° West 406 467 36,000  Level Cleveland Center
Thu 06:00:14 PM 42.5619 -80.9242 272° West 406 467 36,000  Level Cleveland Center
Thu 06:01:14 PM 42.5675 -81.0736 273° West 401 461 36,000  Level Cleveland Center
Thu 06:02:15 PM 42.5731 -81.2231 273° West 401 461 36,000  Level Cleveland Center
Thu 06:03:14 PM 42.5764 -81.3725 272° West 401 461 36,000  Level Cleveland Center
Thu 06:04:14 PM 42.5939 -81.5139 280° West 401 461 36,000  Level Cleveland Center
Thu 06:05:14 PM 42.6197 -81.6611 283° West 401 461 36,000  Level Cleveland Center
Thu 06:06:14 PM 42.6394 -81.7769 283° West 401 461 36,000  Level Cleveland Center
Thu 06:07:14 PM 42.6669 -81.9386 283° West 395 455 36,000  Level Cleveland Center
Thu 06:08:14 PM 42.6922 -82.0831 283° West 395 455 36,000  Level Cleveland Center
Thu 06:09:14 PM 42.7172 -82.2278 283° West 395 455 36,000  Level Cleveland Center
Thu 06:10:14 PM 42.7422 -82.3669 284° West 395 455 36,000  Level Cleveland Center
Thu 06:11:14 PM 42.7650 -82.5119 282° West 393 452 36,000  Level Cleveland Center
Thu 06:12:14 PM 42.7894 -82.6597 283° West 393 452 36,000  Level Cleveland Center
Thu 06:13:14 PM 42.8139 -82.7994 283° West 393 452 36,000 -50 Level Cleveland Center
Thu 06:14:14 PM 42.8361 -82.9417 282° West 393 452 35,900 -500 Descending Cleveland Center
Thu 06:15:14 PM 42.8603 -83.0842 283° West 393 452 35,000 -942 Descending Cleveland Center
Thu 06:16:15 PM 42.8819 -83.2325 281° West 393 452 34,000 -1,000 Descending Cleveland Center
Thu 06:17:14 PM 42.8847 -83.3828 271° West 393 452 33,000 -504 Descending Cleveland Center
Thu 06:18:14 PM 42.8850 -83.5331 270° West 398 458 33,000 -500 Level Cleveland Center
Thu 06:19:14 PM 42.8828 -83.7031 269° West 404 465 32,000 -500 Descending Cleveland Center
Thu 06:20:14 PM 42.8828 -83.8531 270° West 404 465 32,000  Level Cleveland Center
Thu 06:21:14 PM 42.8847 -84.0033 271° West 404 465 32,000  Level Cleveland Center
Thu 06:22:14 PM 42.8842 -84.1564 270° West 404 465 32,000  Level Cleveland Center
Thu 06:23:15 PM 42.8836 -84.3067 270° West 404 465 32,000  Level Cleveland Center
Thu 06:24:26 PM 42.8844 -84.4658 270° West 399 459 32,000  Level Chicago Center
Thu 06:25:28 PM 42.8817 -84.6161 269° West 399 459 32,000  Level Chicago Center
Thu 06:26:30 PM 42.8656 -84.7664 262° West 400 460 32,000  Level Chicago Center
Thu 06:27:32 PM 42.8467 -84.9461 262° West 399 459 32,000 -145 Level Chicago Center
Thu 06:28:34 PM 42.8303 -85.0981 262° West 403 464 31,700 -871 Descending Chicago Center
Thu 06:29:36 PM 42.8136 -85.2469 261° West 400 460 30,200 -1,452 Descending Chicago Center
Thu 06:30:38 PM 42.7978 -85.3967 262° West 398 458 28,700 -1,452 Descending Chicago Center
Thu 06:31:40 PM 42.7775 -85.5508 260° West 411 473 27,200 -1,500 Descending Chicago Center
Thu 06:32:42 PM 42.7494 -85.7033 256° West 414 476 25,600 -1,500 Descending Chicago Center
Thu 06:33:44 PM 42.7228 -85.8517 256° West 404 465 24,100 -1,584 Descending Chicago Center
Thu 06:34:47 PM 42.6914 -86.0256 256° West 393 452 22,300 -1,584 Descending Chicago Center
Thu 06:35:49 PM 42.6658 -86.1647 256° West 382 440 20,800 -1,113 Descending Chicago Center
Thu 06:36:51 PM 42.6406 -86.3025 256° West 377 434 20,000 -677 Descending Chicago Center
Thu 06:37:53 PM 42.6150 -86.4353 255° West 366 421 19,400 -1,065 Descending Chicago Center
Thu 06:38:55 PM 42.5900 -86.5664 256° West 360 414 17,800 -1,871 Descending Chicago Center
Thu 06:40:00 PM 42.5527 -86.7064 250° West  Level FlightAware Approximate
Thu 06:40:59 PM 42.5375 -86.8178 250° West 350 403 13,600  Level Chicago Center
Thu 06:42:01 PM 42.4981 -86.9589 249° West 338 389 11,700 -1,500 Descending Chicago Center
Thu 06:43:03 PM 42.4633 -87.0781 248° West 339 390 10,500 -823 Descending Chicago Center
Thu 06:44:05 PM 42.4322 -87.1931 250° West 327 376 10,000 -726 Descending Chicago Center
Thu 06:45:07 PM 42.3975 -87.2764 241° Southwest 288 331 9,000 -480 Descending Chicago Center
Thu 06:46:10 PM 42.3039 -87.2647 175° South 297 342 9,000  Level Chicago Center
Thu 06:47:12 PM 42.2333 -87.2528 173° South 292 336 9,000 -484 Level Chicago Center
Thu 06:48:14 PM 42.1372 -87.2386 174° South 289 333 8,000 -919 Descending Chicago Center
Thu 06:49:16 PM 42.0717 -87.2633 196° South 263 303 7,100 -484 Descending Chicago Center
Thu 06:50:18 PM 42.0242 -87.3356 228° Southwest 261 300 7,000 -65 Descending Chicago Center
Thu 06:50:48 PM 42.0000 -87.3833 236° Southwest 256 295 7,000  Level Chicago TRACON
Thu 06:51:48 PM 41.9833 -87.4667 255° West 255 293 7,000 -700 Level Chicago TRACON
Thu 06:52:48 PM 41.9833 -87.5667 270° West 240 276 5,600 -1,450 Descending Chicago TRACON
Thu 06:53:48 PM 41.9833 -87.6500 270° West 247 284 4,100 -1,350 Descending Chicago TRACON
Thu 06:54:48 PM 41.9833 -87.7333 270° West 200 230 2,900 -1,200 Descending Chicago TRACON

Login

Don't have an account? Register now (free) for customized features, flight alerts, and more!